الصفحة الرئيسية
METAR-TAF:

METAR-TAF

مطار :

كراكاس, فنزويلا

دائرة عرض: 10-36N, خط طول: 066-59W, ارتفاع: 43 متر

مراقبة الطقس الحالي

تاريخ ووقت الإصدار 29 دقيقة قبل الساعة 11:00UTC
رياح هادئة
درجة الحرارة 23°درجة مئوية
الرطوبة 83%
ضغط 1011 hPa
الرؤية 10 كم أو أكثر
غيوم قليلة على ارتفاع 1600 قدم

METAR: SVMI 161100Z 00000KT 9999 FEW016 23/20 Q1011

زمن: 07:29 (11:29 UTC)

توقعات

تاريخ ووقت الإصدار 8ساعات و 43 دقيقة قبل الساعة 02:46UTC
التوقعات صالحة من16 الساعة 06 UTC إلى 17 الساعة 06 UTC
ريح عقدة من الشمال
الرؤية 10 كم أو أكثر
غيوم قليلة على ارتفاع 1600 قدم
من 16 الساعة 0800 UTC
ريح عقدة من الشمال
الرؤية 10 كم أو أكثر
غيوم قليلة على ارتفاع 1600 قدم

TAF: SVMI 160246Z 1606/1706 00000KT 9999 FEW016 TX30/18Z TN24/06Z FM160800 00000KT 9999 FEW016 SCT10

أرصاد الطقس والتوقعات من أكثر من 4000 مطار (تقارير الطقس للمطار METAR والتنبؤ بالطقس بالمطارTAF).

المحطات المتاحة هي النقط الصفراء والحمراء على الخريطة.

حرك المؤشر فوق النقطة لمعرفة اسم المحطة.

ثم انقر لمعرفة أرصاد وتوقعات الطقس.

لتغيير الخارطة: اضغط على الأزرار الخضراء مع رمز الصليب الأسود للتكبير. على الزر الأخضر مع شرطة للتصغير، أو على الأسهم الخضراء للخرائط المجاورة.


METAR-TAF: